createdAt,value
2022-11-10T00:01:06.275Z,11.71
2022-11-10T00:03:33.675Z,11.76
2022-11-10T00:06:02.810Z,11.81
2022-11-10T00:08:29.451Z,11.80
2022-11-10T00:10:59.020Z,11.78
2022-11-10T00:13:32.022Z,11.79
2022-11-10T00:16:19.126Z,11.82
2022-11-10T00:18:45.703Z,11.80
2022-11-10T00:21:14.667Z,11.81
2022-11-10T00:23:41.911Z,11.76
2022-11-10T00:26:20.026Z,11.79
2022-11-10T00:28:46.658Z,11.78
2022-11-10T00:31:13.809Z,11.75
2022-11-10T00:33:42.841Z,11.71
2022-11-10T00:36:09.894Z,11.75
2022-11-10T00:38:36.544Z,11.72
2022-11-10T00:41:03.599Z,11.74
2022-11-10T00:43:30.654Z,11.79
2022-11-10T00:45:57.791Z,11.78
2022-11-10T00:48:24.655Z,11.76
2022-11-10T00:50:51.522Z,11.77
2022-11-10T00:53:18.546Z,11.80
2022-11-10T00:55:45.216Z,11.81
2022-11-10T00:58:11.824Z,11.81
2022-11-10T01:00:38.350Z,11.77
2022-11-10T01:03:04.999Z,11.74
2022-11-10T01:05:32.090Z,11.76
2022-11-10T01:08:02.181Z,11.77
2022-11-10T01:10:28.717Z,11.73
2022-11-10T01:12:55.516Z,11.74
2022-11-10T01:15:27.270Z,11.77
2022-11-10T01:17:55.950Z,11.76
2022-11-10T01:20:23.520Z,11.74
2022-11-10T01:22:50.136Z,11.65
2022-11-10T01:25:16.694Z,11.68
2022-11-10T01:27:43.237Z,11.71
2022-11-10T01:30:10.307Z,11.73
2022-11-10T01:32:36.798Z,11.71
2022-11-10T01:35:03.865Z,11.72
2022-11-10T01:37:30.310Z,11.75
2022-11-10T01:39:56.853Z,11.76
2022-11-10T01:42:28.799Z,11.73
2022-11-10T01:45:23.157Z,11.70
2022-11-10T01:47:53.054Z,11.71
2022-11-10T01:50:24.043Z,11.72
2022-11-10T01:52:54.195Z,11.70
2022-11-10T01:55:20.744Z,11.65
2022-11-10T01:57:47.408Z,11.62
2022-11-10T02:00:14.012Z,11.59
2022-11-10T02:02:46.870Z,11.58
2022-11-10T02:05:13.544Z,11.57
2022-11-10T02:07:40.265Z,11.56
2022-11-10T02:10:14.733Z,11.58
2022-11-10T02:12:41.400Z,11.60
2022-11-10T02:15:11.184Z,11.60
2022-11-10T02:17:37.867Z,11.61
2022-11-10T02:20:07.520Z,11.58
2022-11-10T02:22:34.077Z,11.47
2022-11-10T02:25:00.511Z,11.42
2022-11-10T02:27:26.964Z,11.36
2022-11-10T02:29:53.679Z,11.41
2022-11-10T02:32:20.168Z,11.45
2022-11-10T02:34:46.606Z,11.43
2022-11-10T02:37:13.083Z,11.44
2022-11-10T02:39:39.517Z,11.43
2022-11-10T02:42:10.346Z,11.36
2022-11-10T02:44:40.555Z,11.22
2022-11-10T02:47:07.657Z,11.25
2022-11-10T02:49:34.130Z,11.22
2022-11-10T02:52:00.625Z,11.13
2022-11-10T02:54:27.077Z,11.16
2022-11-10T02:56:53.629Z,11.06
2022-11-10T02:59:20.060Z,11.06
2022-11-10T03:01:46.529Z,11.04
2022-11-10T03:04:13.111Z,11.06
2022-11-10T03:06:39.647Z,10.97
2022-11-10T03:09:06.160Z,10.98
2022-11-10T03:11:32.729Z,11.01
2022-11-10T03:14:02.067Z,11.08
2022-11-10T03:16:29.522Z,11.13
2022-11-10T03:18:56.006Z,11.14
2022-11-10T03:21:22.464Z,11.17
2022-11-10T03:23:48.872Z,11.16
2022-11-10T03:26:15.287Z,11.11
2022-11-10T03:28:41.727Z,11.18
2022-11-10T03:31:08.155Z,11.20
2022-11-10T03:33:35.558Z,11.21
2022-11-10T03:36:02.066Z,11.19
2022-11-10T03:38:28.542Z,11.17
2022-11-10T03:41:18.304Z,11.20
2022-11-10T03:43:41.320Z,11.21
2022-11-10T03:46:08.358Z,11.25
2022-11-10T03:48:34.919Z,11.28
2022-11-10T03:51:01.393Z,11.27
2022-11-10T03:53:27.851Z,11.26
2022-11-10T03:55:54.280Z,11.23
2022-11-10T03:58:20.675Z,11.23
2022-11-10T04:00:47.062Z,11.21
2022-11-10T04:03:13.540Z,11.19
2022-11-10T04:05:58.376Z,11.19
2022-11-10T04:08:43.132Z,11.24
2022-11-10T04:11:09.534Z,11.22
2022-11-10T04:13:54.231Z,11.23
2022-11-10T04:16:20.639Z,11.26
2022-11-10T04:18:47.123Z,11.26
2022-11-10T04:21:13.577Z,11.28
2022-11-10T04:23:40.015Z,11.24
2022-11-10T04:26:30.757Z,11.21
2022-11-10T04:29:01.229Z,11.22
2022-11-10T04:31:30.391Z,11.24
2022-11-10T04:33:57.993Z,11.29
2022-11-10T04:36:27.319Z,11.31
2022-11-10T04:38:55.347Z,11.30
2022-11-10T04:41:22.401Z,11.29
2022-11-10T04:43:48.822Z,11.22
2022-11-10T04:46:34.915Z,11.24
2022-11-10T04:49:02.287Z,11.26
2022-11-10T04:51:34.640Z,11.26
2022-11-10T04:54:01.840Z,11.26
2022-11-10T04:56:28.447Z,11.25
2022-11-10T04:58:55.406Z,11.24
2022-11-10T05:01:25.139Z,11.26
2022-11-10T05:03:52.051Z,11.25
2022-11-10T05:06:18.623Z,11.19
2022-11-10T05:08:46.199Z,11.07
2022-11-10T05:11:12.780Z,11.13
2022-11-10T05:13:39.451Z,11.14
2022-11-10T05:16:06.868Z,11.17
2022-11-10T05:18:33.813Z,11.20
2022-11-10T05:21:00.263Z,11.21
2022-11-10T05:23:38.984Z,11.24
2022-11-10T05:26:06.333Z,11.25
2022-11-10T05:28:33.310Z,11.29
2022-11-10T05:30:59.894Z,11.31
2022-11-10T05:33:26.504Z,11.32
2022-11-10T05:35:52.996Z,11.32
2022-11-10T05:38:19.453Z,11.32
2022-11-10T05:40:45.950Z,11.28
2022-11-10T05:43:12.394Z,11.28
2022-11-10T05:45:38.820Z,11.29
2022-11-10T05:48:05.451Z,11.26
2022-11-10T05:50:31.851Z,11.25
2022-11-10T05:52:58.405Z,11.30
2022-11-10T05:55:28.182Z,11.24
2022-11-10T05:57:55.564Z,11.23
2022-11-10T06:00:25.714Z,11.24
2022-11-10T06:03:06.641Z,11.21
2022-11-10T06:05:35.531Z,11.16
2022-11-10T06:08:04.687Z,11.21
2022-11-10T06:10:32.275Z,11.26
2022-11-10T06:12:58.760Z,11.30
2022-11-10T06:15:25.962Z,11.32
2022-11-10T06:17:53.157Z,11.34
2022-11-10T06:20:20.471Z,11.29
2022-11-10T06:22:59.541Z,11.22
2022-11-10T06:25:26.442Z,11.17
2022-11-10T06:27:53.499Z,11.23
2022-11-10T06:30:20.160Z,11.29
2022-11-10T06:32:46.716Z,11.31
2022-11-10T06:35:13.252Z,11.35
2022-11-10T06:37:39.724Z,11.37
2022-11-10T06:40:07.937Z,11.38
2022-11-10T06:42:35.287Z,11.37
2022-11-10T06:45:01.963Z,11.40
2022-11-10T06:47:32.712Z,11.42
2022-11-10T06:49:59.153Z,11.36
2022-11-10T06:52:25.618Z,11.26
2022-11-10T06:54:52.038Z,11.20
2022-11-10T06:57:19.647Z,11.26
2022-11-10T06:59:46.091Z,11.34
2022-11-10T07:02:16.426Z,11.36
2022-11-10T07:04:42.866Z,11.38
2022-11-10T07:07:10.500Z,11.40
2022-11-10T07:09:37.762Z,11.34
2022-11-10T07:12:05.328Z,11.33
2022-11-10T07:14:31.753Z,11.39
2022-11-10T07:16:58.198Z,11.43
2022-11-10T07:19:24.608Z,11.44
2022-11-10T07:21:51.016Z,11.48
2022-11-10T07:24:17.507Z,11.52
2022-11-10T07:26:43.982Z,11.55
2022-11-10T07:29:10.391Z,11.55
2022-11-10T07:31:36.818Z,11.57
2022-11-10T07:34:03.226Z,11.59
2022-11-10T07:36:29.677Z,11.58
2022-11-10T07:38:56.127Z,11.58
2022-11-10T07:41:22.680Z,11.61
2022-11-10T07:43:49.141Z,11.57
2022-11-10T07:46:16.692Z,11.52
2022-11-10T07:48:43.098Z,11.58
2022-11-10T07:51:09.695Z,11.61
2022-11-10T07:53:36.245Z,11.62
2022-11-10T07:56:02.784Z,11.60
2022-11-10T07:58:30.260Z,11.63
2022-11-10T08:00:56.722Z,11.64
2022-11-10T08:03:23.456Z,11.68
2022-11-10T08:05:50.170Z,11.68
2022-11-10T08:08:17.572Z,11.67
2022-11-10T08:10:44.612Z,11.70
2022-11-10T08:13:12.993Z,11.73
2022-11-10T08:15:40.614Z,11.77
2022-11-10T08:18:18.148Z,11.80
2022-11-10T08:20:45.176Z,11.82
2022-11-10T08:23:12.024Z,11.82
2022-11-10T08:25:39.268Z,11.84
2022-11-10T08:28:11.268Z,11.89
2022-11-10T08:30:39.909Z,11.95
2022-11-10T08:33:09.256Z,12.00
2022-11-10T08:35:38.239Z,11.98
2022-11-10T08:38:16.740Z,11.84
2022-11-10T08:40:44.248Z,11.82
2022-11-10T08:43:11.814Z,11.76
2022-11-10T08:45:40.535Z,11.78
2022-11-10T08:48:15.863Z,11.85
2022-11-10T08:50:43.016Z,11.90
2022-11-10T08:53:15.716Z,11.89
2022-11-10T08:55:43.323Z,11.89
2022-11-10T08:58:14.595Z,11.92
2022-11-10T09:00:40.900Z,11.96
2022-11-10T09:03:11.972Z,12.00
2022-11-10T09:05:38.546Z,12.03
2022-11-10T09:08:05.393Z,12.09
2022-11-10T09:10:34.161Z,12.13
2022-11-10T09:13:02.441Z,12.20
2022-11-10T09:15:30.283Z,12.26
2022-11-10T09:18:01.951Z,12.32
2022-11-10T09:20:30.013Z,12.37
2022-11-10T09:22:56.500Z,12.35
2022-11-10T09:25:23.741Z,12.31
2022-11-10T09:27:50.164Z,12.32
2022-11-10T09:30:18.158Z,12.33
2022-11-10T09:32:46.675Z,12.32
2022-11-10T09:35:13.626Z,12.33
2022-11-10T09:37:40.401Z,12.39
2022-11-10T09:40:13.124Z,12.40
2022-11-10T09:42:41.390Z,12.30
2022-11-10T09:45:17.699Z,12.39
2022-11-10T09:48:02.265Z,12.45
2022-11-10T09:50:41.928Z,12.46
2022-11-10T09:53:31.261Z,12.52
2022-11-10T09:56:07.591Z,12.49
2022-11-10T09:58:39.565Z,12.54
2022-11-10T10:01:18.127Z,12.55
2022-11-10T10:04:04.043Z,12.51
2022-11-10T10:06:57.072Z,12.48
2022-11-10T10:09:21.855Z,12.50
2022-11-10T10:12:10.237Z,12.55
2022-11-10T10:14:39.673Z,12.56
2022-11-10T10:17:08.997Z,12.65
2022-11-10T10:20:17.248Z,12.69
2022-11-10T10:22:57.438Z,12.71
2022-11-10T10:25:26.527Z,12.84
2022-11-10T10:28:15.196Z,12.84
2022-11-10T10:30:43.110Z,12.83
2022-11-10T10:33:17.116Z,12.84
2022-11-10T10:35:45.022Z,12.83
2022-11-10T10:38:33.522Z,12.81
2022-11-10T10:41:13.659Z,12.72
2022-11-10T10:43:47.408Z,12.77
2022-11-10T10:46:20.238Z,12.82
2022-11-10T10:48:50.588Z,12.79
2022-11-10T10:51:30.674Z,12.83
2022-11-10T10:53:57.185Z,12.89
2022-11-10T10:56:31.306Z,12.89
2022-11-10T10:59:03.942Z,12.97
2022-11-10T11:01:34.252Z,13.04
2022-11-10T11:04:05.209Z,13.10
2022-11-10T11:06:33.488Z,13.11
2022-11-10T11:09:14.119Z,13.10
2022-11-10T11:11:42.452Z,13.09
2022-11-10T11:14:15.905Z,13.17
2022-11-10T11:16:55.461Z,13.18
2022-11-10T11:19:30.104Z,13.21
2022-11-10T11:22:05.455Z,13.21
2022-11-10T11:24:43.193Z,13.16
2022-11-10T11:27:18.010Z,13.08
2022-11-10T11:30:05.835Z,13.11
2022-11-10T11:33:06.281Z,13.12
2022-11-10T11:35:45.129Z,13.08
2022-11-10T11:38:14.510Z,13.10
2022-11-10T11:40:50.040Z,13.09
2022-11-10T11:43:26.301Z,13.16
2022-11-10T11:46:18.880Z,13.24
2022-11-10T11:49:06.464Z,13.25
2022-11-10T11:51:50.904Z,13.26
2022-11-10T11:54:59.274Z,13.37
2022-11-10T11:57:53.794Z,13.54
2022-11-10T12:00:21.835Z,13.56
2022-11-10T12:03:12.143Z,13.59
2022-11-10T12:06:12.676Z,13.67
2022-11-10T12:09:02.589Z,13.66
2022-11-10T12:11:44.210Z,13.64
2022-11-10T12:14:43.023Z,13.64
2022-11-10T12:17:14.572Z,13.57
2022-11-10T12:20:25.583Z,13.48
2022-11-10T12:23:18.055Z,13.44
2022-11-10T12:26:22.585Z,13.41
2022-11-10T12:29:00.864Z,13.43
2022-11-10T12:31:32.796Z,13.44
2022-11-10T12:34:05.875Z,13.39
2022-11-10T12:36:33.355Z,13.40
2022-11-10T12:39:15.305Z,13.38
2022-11-10T12:42:01.856Z,13.47
2022-11-10T12:44:36.990Z,13.51
2022-11-10T12:47:06.813Z,13.50
2022-11-10T12:49:39.181Z,13.51
2022-11-10T12:52:25.089Z,13.52
2022-11-10T12:54:51.532Z,13.51
2022-11-10T12:57:22.834Z,13.51
2022-11-10T12:59:55.135Z,13.53
2022-11-10T13:02:35.624Z,13.56
2022-11-10T13:05:14.280Z,13.51
2022-11-10T13:07:44.573Z,13.50
2022-11-10T13:10:27.198Z,13.43
2022-11-10T13:13:05.978Z,13.38
2022-11-10T13:15:35.402Z,13.37
2022-11-10T13:18:02.295Z,13.40
2022-11-10T13:20:54.672Z,13.49
2022-11-10T13:23:21.357Z,13.56
2022-11-10T13:26:10.335Z,13.63
2022-11-10T13:28:47.169Z,13.64
2022-11-10T13:31:28.538Z,13.66
2022-11-10T13:34:11.886Z,13.68
2022-11-10T13:36:45.931Z,13.66
2022-11-10T13:39:24.262Z,13.67
2022-11-10T13:42:02.074Z,13.64
2022-11-10T13:44:34.127Z,13.54
2022-11-10T13:47:11.969Z,13.57
2022-11-10T13:50:08.324Z,13.62
2022-11-10T13:52:56.944Z,13.71
2022-11-10T13:55:49.700Z,13.70
2022-11-10T13:58:36.916Z,13.68
2022-11-10T14:01:15.297Z,13.70
2022-11-10T14:03:48.039Z,13.68
2022-11-10T14:06:22.435Z,13.58
2022-11-10T14:09:10.629Z,13.50
2022-11-10T14:11:45.795Z,13.52
2022-11-10T14:14:27.343Z,13.51
2022-11-10T14:16:54.531Z,13.53
2022-11-10T14:19:36.180Z,13.54
2022-11-10T14:22:15.959Z,13.53
2022-11-10T14:24:52.774Z,13.53
2022-11-10T14:27:26.755Z,13.52
2022-11-10T14:30:27.353Z,13.54
2022-11-10T14:33:14.104Z,13.51
2022-11-10T14:35:52.580Z,13.49
2022-11-10T14:38:43.689Z,13.48
2022-11-10T14:41:17.878Z,13.47
2022-11-10T14:43:44.576Z,13.47
2022-11-10T14:46:15.094Z,13.47
2022-11-10T14:48:41.532Z,13.48
2022-11-10T14:51:15.035Z,13.50
2022-11-10T14:53:48.455Z,13.54
2022-11-10T14:56:19.588Z,13.51
2022-11-10T14:58:48.471Z,13.52
2022-11-10T15:01:33.664Z,13.49
2022-11-10T15:04:05.954Z,13.50
2022-11-10T15:06:33.156Z,13.51
2022-11-10T15:08:59.870Z,13.50
2022-11-10T15:11:34.648Z,13.55
2022-11-10T15:14:01.265Z,13.57
2022-11-10T15:16:39.050Z,13.60
2022-11-10T15:19:27.337Z,13.55
2022-11-10T15:21:53.889Z,13.51
2022-11-10T15:24:22.871Z,13.51
2022-11-10T15:26:49.556Z,13.48
2022-11-10T15:29:21.580Z,13.48
2022-11-10T15:31:48.776Z,13.49
2022-11-10T15:34:40.479Z,13.52
2022-11-10T15:37:30.544Z,13.49
2022-11-10T15:40:28.423Z,13.46
2022-11-10T15:43:13.779Z,13.47
2022-11-10T15:45:41.735Z,13.41
2022-11-10T15:48:14.071Z,13.39
2022-11-10T15:50:46.936Z,13.38
2022-11-10T15:53:24.842Z,13.38
2022-11-10T15:55:51.551Z,13.43
2022-11-10T15:58:20.716Z,13.47
2022-11-10T16:00:47.838Z,13.45
2022-11-10T16:03:23.430Z,13.46
2022-11-10T16:05:49.886Z,13.44
2022-11-10T16:08:18.950Z,13.44
2022-11-10T16:10:47.908Z,13.41
2022-11-10T16:13:23.357Z,13.37
2022-11-10T16:15:50.398Z,13.34
2022-11-10T16:18:20.579Z,13.33
2022-11-10T16:20:48.221Z,13.35
2022-11-10T16:23:14.889Z,13.35
2022-11-10T16:25:42.448Z,13.34
2022-11-10T16:28:11.342Z,13.33
2022-11-10T16:30:37.850Z,13.33
2022-11-10T16:33:04.550Z,13.29
2022-11-10T16:35:31.007Z,13.23
2022-11-10T16:37:57.430Z,13.16
2022-11-10T16:40:24.572Z,13.07
2022-11-10T16:42:51.237Z,13.02
2022-11-10T16:45:23.601Z,13.00
2022-11-10T16:47:52.988Z,12.95
2022-11-10T16:50:32.348Z,12.96
2022-11-10T16:53:02.122Z,12.95
2022-11-10T16:55:28.712Z,12.99
2022-11-10T16:57:55.327Z,12.93
2022-11-10T17:00:21.930Z,12.94
2022-11-10T17:03:01.417Z,12.96
2022-11-10T17:05:28.476Z,12.96
2022-11-10T17:07:55.800Z,12.87
2022-11-10T17:10:22.309Z,12.87
2022-11-10T17:12:48.771Z,12.85
2022-11-10T17:15:16.111Z,12.81
2022-11-10T17:17:45.386Z,12.82
2022-11-10T17:20:25.873Z,12.83
2022-11-10T17:22:52.913Z,12.81
2022-11-10T17:25:30.012Z,12.83
2022-11-10T17:27:56.549Z,12.80
2022-11-10T17:30:23.497Z,12.74
2022-11-10T17:33:04.650Z,12.68
2022-11-10T17:35:39.191Z,12.62
2022-11-10T17:38:11.346Z,12.58
2022-11-10T17:40:37.989Z,12.54
2022-11-10T17:43:04.415Z,12.47
2022-11-10T17:45:30.832Z,12.51
2022-11-10T17:47:58.381Z,12.53
2022-11-10T17:50:24.828Z,12.41
2022-11-10T17:52:51.313Z,12.39
2022-11-10T17:55:20.550Z,12.44
2022-11-10T17:57:47.511Z,12.42
2022-11-10T18:00:15.534Z,12.37
2022-11-10T18:02:43.281Z,12.34
2022-11-10T18:05:15.325Z,12.29
2022-11-10T18:07:43.142Z,12.24
2022-11-10T18:10:12.813Z,12.18
2022-11-10T18:12:40.601Z,12.06
2022-11-10T18:15:13.688Z,11.99
2022-11-10T18:17:41.217Z,12.01
2022-11-10T18:20:09.423Z,12.03
2022-11-10T18:22:35.895Z,12.01
2022-11-10T18:25:02.336Z,11.99
2022-11-10T18:27:29.250Z,11.93
2022-11-10T18:29:55.742Z,11.99
2022-11-10T18:32:23.279Z,12.00
2022-11-10T18:34:50.094Z,12.00
2022-11-10T18:37:17.503Z,12.00
2022-11-10T18:39:44.144Z,11.89
2022-11-10T18:42:11.086Z,11.80
2022-11-10T18:44:37.595Z,11.79
2022-11-10T18:47:05.332Z,11.68
2022-11-10T18:49:31.860Z,11.61
2022-11-10T18:51:58.524Z,11.55
2022-11-10T18:54:25.737Z,11.59
2022-11-10T18:56:52.455Z,11.64
2022-11-10T18:59:18.976Z,11.65
2022-11-10T19:01:45.665Z,11.58
2022-11-10T19:04:13.389Z,11.54
2022-11-10T19:06:40.366Z,11.49
2022-11-10T19:09:07.009Z,11.44
2022-11-10T19:11:34.101Z,11.46
2022-11-10T19:14:01.905Z,11.37
2022-11-10T19:16:29.930Z,11.29
2022-11-10T19:18:57.181Z,11.30
2022-11-10T19:21:27.628Z,11.41
2022-11-10T19:23:56.194Z,11.46
2022-11-10T19:26:24.436Z,11.46
2022-11-10T19:28:53.240Z,11.49
2022-11-10T19:31:22.750Z,11.46
2022-11-10T19:33:51.008Z,11.44
2022-11-10T19:36:20.504Z,11.37
2022-11-10T19:38:47.148Z,11.28
2022-11-10T19:41:17.405Z,11.21
2022-11-10T19:43:47.420Z,11.17
2022-11-10T19:46:25.948Z,11.15
2022-11-10T19:48:52.400Z,11.16
2022-11-10T19:51:19.435Z,11.21
2022-11-10T19:53:47.846Z,11.20
2022-11-10T19:56:20.068Z,11.14
2022-11-10T19:58:47.688Z,11.14
2022-11-10T20:01:15.774Z,11.18
2022-11-10T20:03:43.148Z,11.18
2022-11-10T20:06:15.574Z,11.16
2022-11-10T20:08:44.178Z,11.12
2022-11-10T20:11:22.389Z,11.07
2022-11-10T20:13:54.419Z,11.02
2022-11-10T20:16:21.756Z,11.03
2022-11-10T20:18:48.231Z,11.06
2022-11-10T20:21:17.727Z,10.97
2022-11-10T20:23:44.438Z,10.89
2022-11-10T20:26:13.845Z,10.91
2022-11-10T20:28:40.933Z,10.93
2022-11-10T20:31:20.576Z,10.85
2022-11-10T20:33:48.444Z,10.72
2022-11-10T20:36:21.299Z,10.58
2022-11-10T20:38:49.331Z,10.55
2022-11-10T20:41:18.817Z,10.48
2022-11-10T20:43:46.388Z,10.41
2022-11-10T20:46:33.418Z,10.38
2022-11-10T20:49:02.587Z,10.22
2022-11-10T20:51:29.078Z,10.15
2022-11-10T20:53:56.912Z,10.08
2022-11-10T20:56:28.360Z,10.03
2022-11-10T20:58:56.479Z,10.04
2022-11-10T21:01:23.570Z,10.11
2022-11-10T21:03:50.283Z,10.16
2022-11-10T21:06:16.831Z,10.23
2022-11-10T21:08:43.393Z,10.27
2022-11-10T21:11:10.333Z,10.26
2022-11-10T21:13:37.133Z,10.26
2022-11-10T21:16:06.387Z,10.27
2022-11-10T21:18:35.195Z,10.27
2022-11-10T21:21:02.021Z,10.23
2022-11-10T21:23:28.537Z,10.29
2022-11-10T21:25:56.552Z,10.32
2022-11-10T21:28:23.640Z,10.29
2022-11-10T21:30:50.377Z,10.31
2022-11-10T21:33:16.950Z,10.18
2022-11-10T21:35:43.490Z,10.11
2022-11-10T21:38:13.880Z,10.12
2022-11-10T21:40:40.375Z,10.11
2022-11-10T21:43:07.438Z,10.08
2022-11-10T21:45:33.926Z,10.05
2022-11-10T21:48:01.726Z,9.98
2022-11-10T21:50:28.840Z,9.94
2022-11-10T21:52:55.380Z,9.99
2022-11-10T21:55:21.859Z,10.06
2022-11-10T21:57:48.275Z,10.02
2022-11-10T22:00:15.017Z,9.94
2022-11-10T22:02:41.472Z,9.92
2022-11-10T22:05:08.276Z,9.98
2022-11-10T22:07:34.732Z,10.01
2022-11-10T22:10:19.755Z,9.93
2022-11-10T22:13:04.889Z,9.95
2022-11-10T22:15:49.611Z,9.99
2022-11-10T22:18:36.388Z,9.93
2022-11-10T22:21:04.153Z,9.73
2022-11-10T22:23:49.406Z,9.64
2022-11-10T22:26:15.893Z,9.65
2022-11-10T22:28:42.367Z,9.57
2022-11-10T22:31:10.333Z,9.59
2022-11-10T22:33:39.163Z,9.64
2022-11-10T22:36:08.788Z,9.61
2022-11-10T22:38:37.650Z,9.59
2022-11-10T22:41:23.339Z,9.56
2022-11-10T22:44:04.730Z,9.47
2022-11-10T22:46:36.579Z,9.40
2022-11-10T22:49:08.789Z,9.46
2022-11-10T22:51:36.702Z,9.50
2022-11-10T22:54:04.465Z,9.50
2022-11-10T22:56:32.471Z,9.39
2022-11-10T22:59:00.322Z,9.29
2022-11-10T23:01:27.628Z,9.26
2022-11-10T23:03:54.499Z,9.25
2022-11-10T23:06:21.001Z,9.21
2022-11-10T23:08:47.431Z,9.14
2022-11-10T23:11:17.299Z,9.21
2022-11-10T23:13:43.707Z,9.31
2022-11-10T23:16:15.517Z,9.34
2022-11-10T23:18:43.638Z,9.43
2022-11-10T23:21:13.140Z,9.50
2022-11-10T23:23:40.312Z,9.54
2022-11-10T23:26:09.386Z,9.52
2022-11-10T23:28:37.426Z,9.39
2022-11-10T23:31:11.271Z,9.31
2022-11-10T23:33:39.590Z,9.16
2022-11-10T23:36:07.331Z,9.14
2022-11-10T23:38:35.153Z,9.24
2022-11-10T23:41:03.000Z,9.31
2022-11-10T23:43:30.036Z,9.22
2022-11-10T23:46:12.613Z,9.12
2022-11-10T23:48:39.910Z,9.06
2022-11-10T23:51:07.816Z,9.10
2022-11-10T23:53:34.531Z,9.22
2022-11-10T23:56:03.298Z,9.22
2022-11-10T23:58:30.410Z,9.21
